Time;durP1;ratioP1;P1;durP2;ratioP2;P2;SDS_P1;SDS_P2;PMS_P1;PMS_P2;Temp;Humidity;BMP_temperature;BMP_pressure;BME280_temperature;BME280_humidity;BME280_pressure;Samples;Min_cycle;Max_cycle;Signal;HPM_P1;HPM_P2
2021/09/11 00:00:40;;;;;;;13.25;7.60;;;20.80;95.80;;;;;;7406801;19;20011;-78
2021/09/11 00:03:14;;;;;;;12.73;7.82;;;20.80;96.00;;;;;;7405728;19;20017;-81
2021/09/11 00:05:44;;;;;;;9.85;7.13;;;20.80;96.00;;;;;;7406324;19;20018;-81
2021/09/11 00:08:13;;;;;;;12.07;8.02;;;20.70;96.10;;;;;;7406563;19;20337;-79
2021/09/11 00:10:43;;;;;;;13.25;7.78;;;20.70;96.20;;;;;;7406183;19;20443;-80
2021/09/11 00:13:12;;;;;;;13.63;7.88;;;20.70;96.40;;;;;;7406805;19;20442;-79
2021/09/11 00:15:42;;;;;;;11.88;8.07;;;20.60;96.60;;;;;;7405310;19;20015;-78
2021/09/11 00:18:14;;;;;;;14.32;7.68;;;20.60;96.60;;;;;;7403951;19;20021;-80
2021/09/11 00:20:45;;;;;;;10.68;7.43;;;20.60;96.90;;;;;;7405313;19;20123;-80
2021/09/11 00:23:18;;;;;;;12.45;7.85;;;20.50;97.00;;;;;;7408290;19;20048;-80
2021/09/11 00:25:47;;;;;;;19.35;7.25;;;20.50;97.20;;;;;;7405481;19;20030;-79
2021/09/11 00:28:17;;;;;;;12.80;8.88;;;20.40;97.40;;;;;;7406614;19;20017;-80
2021/09/11 00:30:49;;;;;;;12.38;8.13;;;20.40;97.60;;;;;;7403973;19;20081;-80
2021/09/11 00:33:21;;;;;;;13.07;8.60;;;20.40;97.80;;;;;;7405386;19;20012;-80
2021/09/11 00:35:51;;;;;;;10.82;7.65;;;20.40;98.00;;;;;;7402939;19;20022;-80
2021/09/11 00:38:20;;;;;;;13.63;8.65;;;20.30;98.20;;;;;;7404613;19;20489;-80
2021/09/11 00:40:50;;;;;;;12.10;7.95;;;20.30;98.30;;;;;;7403971;19;20017;-79
2021/09/11 00:43:24;;;;;;;12.10;8.45;;;20.30;98.40;;;;;;7403261;19;20015;-79
2021/09/11 00:45:56;;;;;;;11.75;7.97;;;20.30;98.50;;;;;;7401990;19;20016;-78
2021/09/11 00:48:28;;;;;;;17.25;8.30;;;20.30;98.70;;;;;;7401866;19;20408;-80
2021/09/11 00:50:57;;;;;;;14.18;8.32;;;20.30;98.80;;;;;;7400243;19;20081;-78
2021/09/11 00:53:32;;;;;;;15.57;8.30;;;20.20;99.00;;;;;;7402042;19;20014;-78
2021/09/11 00:56:02;;;;;;;16.58;8.85;;;20.20;99.30;;;;;;7400748;19;20427;-78
2021/09/11 00:58:33;;;;;;;11.13;8.45;;;20.10;99.40;;;;;;7402566;19;20425;-78
2021/09/11 01:01:06;;;;;;;12.48;8.25;;;20.10;99.70;;;;;;7400721;19;20044;-78
2021/09/11 01:03:38;;;;;;;14.68;8.43;;;20.10;99.90;;;;;;7400105;19;20021;-78
2021/09/11 01:06:12;;;;;;;11.95;7.47;;;20.20;99.80;;;;;;7398992;19;20017;-78
2021/09/11 01:08:43;;;;;;;19.05;8.88;;;20.30;99.80;;;;;;7400350;19;20021;-78
2021/09/11 01:11:16;;;;;;;14.18;8.55;;;20.30;99.90;;;;;;7403333;19;20015;-80
2021/09/11 01:13:45;;;;;;;15.30;8.73;;;20.20;99.90;;;;;;7402124;19;20026;-80
2021/09/11 01:16:20;;;;;;;14.43;8.57;;;20.20;99.90;;;;;;7399703;19;20023;-81
2021/09/11 01:18:52;;;;;;;10.63;8.32;;;20.10;99.90;;;;;;7404567;19;20006;-79
2021/09/11 01:21:24;;;;;;;13.32;9.10;;;20.00;99.90;;;;;;7406723;19;20038;-80
2021/09/11 01:24:00;;;;;;;13.48;9.05;;;20.00;99.90;;;;;;7407064;19;20022;-81
2021/09/11 01:26:33;;;;;;;13.57;9.02;;;20.00;99.90;;;;;;7401379;19;20014;-81
2021/09/11 01:29:03;;;;;;;14.30;9.82;;;20.00;99.90;;;;;;7401079;19;20036;-80
2021/09/11 01:31:36;;;;;;;11.77;9.07;;;19.90;99.90;;;;;;7405570;19;20016;-78
2021/09/11 01:34:10;;;;;;;16.88;9.00;;;19.90;99.90;;;;;;7418053;19;20010;-79
2021/09/11 01:36:53;;;;;;;14.43;9.30;;;19.90;99.90;;;;;;7420924;19;20010;-80
2021/09/11 01:39:28;;;;;;;12.85;10.00;;;19.90;99.90;;;;;;7421204;19;20013;-79
2021/09/11 01:41:58;;;;;;;14.10;9.73;;;19.80;99.90;;;;;;7419500;19;20086;-79
2021/09/11 01:44:28;;;;;;;12.82;9.25;;;19.80;99.90;;;;;;7419548;19;20026;-78
2021/09/11 01:46:58;;;;;;;16.25;9.73;;;19.80;99.90;;;;;;7416554;19;20329;-78
2021/09/11 01:49:28;;;;;;;15.98;9.93;;;19.70;99.90;;;;;;7422554;19;20014;-79
2021/09/11 01:52:00;;;;;;;14.07;9.48;;;19.70;99.90;;;;;;7410264;19;20109;-78
2021/09/11 01:54:32;;;;;;;12.95;9.52;;;19.70;99.90;;;;;;7400937;19;20347;-80
2021/09/11 01:57:05;;;;;;;14.00;9.98;;;19.80;99.90;;;;;;7398784;19;20011;-81
2021/09/11 01:59:36;;;;;;;13.65;9.80;;;19.80;99.90;;;;;;7401844;19;20317;-80
2021/09/11 02:02:09;;;;;;;17.00;10.85;;;19.80;99.90;;;;;;7402049;19;20015;-80
2021/09/11 02:04:41;;;;;;;11.90;9.10;;;19.80;99.90;;;;;;7399971;19;20014;-80
2021/09/11 02:07:13;;;;;;;17.92;10.30;;;19.70;99.90;;;;;;7397660;19;20337;-80
2021/09/11 02:09:45;;;;;;;13.15;9.35;;;19.90;99.90;;;;;;7400438;19;20027;-80
2021/09/11 02:12:17;;;;;;;15.95;9.90;;;20.00;99.90;;;;;;7397421;19;20050;-80
2021/09/11 02:14:48;;;;;;;16.83;9.73;;;20.00;99.90;;;;;;7407633;19;20018;-80
2021/09/11 02:17:20;;;;;;;15.50;9.82;;;20.00;99.90;;;;;;7414645;19;20014;-80
2021/09/11 02:19:51;;;;;;;16.95;10.18;;;20.00;99.90;;;;;;7419305;19;20011;-80
2021/09/11 02:22:23;;;;;;;16.00;10.45;;;19.90;99.90;;;;;;7426205;19;20015;-79
2021/09/11 02:24:58;;;;;;;14.90;10.13;;;19.80;99.90;;;;;;7422902;19;20006;-80
2021/09/11 02:27:33;;;;;;;15.90;10.45;;;19.80;99.90;;;;;;7421784;19;20018;-80
2021/09/11 02:30:02;;;;;;;17.33;10.10;;;19.70;99.90;;;;;;7407567;19;20066;-79
2021/09/11 02:32:36;;;;;;;13.75;10.05;;;19.80;99.90;;;;;;7407948;19;20014;-81
2021/09/11 02:35:10;;;;;;;17.73;10.90;;;19.80;99.90;;;;;;7409296;19;20290;-80
2021/09/11 02:37:39;;;;;;;13.20;9.98;;;19.80;99.90;;;;;;7406624;19;20021;-80
2021/09/11 02:40:18;;;;;;;17.42;10.63;;;19.80;99.90;;;;;;7406315;19;20019;-79
2021/09/11 02:42:49;;;;;;;14.32;10.02;;;19.80;99.90;;;;;;7403871;19;20317;-78
2021/09/11 02:45:19;;;;;;;14.27;10.30;;;19.80;99.90;;;;;;7406196;19;20014;-79
2021/09/11 02:47:48;;;;;;;13.73;9.43;;;19.80;99.90;;;;;;7407440;19;20011;-79
2021/09/11 02:50:18;;;;;;;18.42;11.15;;;19.70;99.90;;;;;;7404734;19;20015;-78
2021/09/11 02:52:47;;;;;;;14.30;9.85;;;19.70;99.90;;;;;;7404869;19;20010;-80
2021/09/11 02:55:19;;;;;;;16.60;10.13;;;19.70;99.90;;;;;;7413770;19;20033;-79
2021/09/11 02:57:49;;;;;;;19.10;10.68;;;19.70;99.90;;;;;;7409522;19;20428;-79
2021/09/11 03:00:18;;;;;;;16.50;9.45;;;19.70;99.90;;;;;;7405704;19;20042;-79
2021/09/11 03:02:50;;;;;;;17.65;9.23;;;19.60;99.90;;;;;;7405613;19;20018;-80
2021/09/11 03:05:20;;;;;;;14.07;9.98;;;19.60;99.90;;;;;;7405438;19;20014;-79
2021/09/11 03:07:51;;;;;;;14.90;10.13;;;19.70;99.90;;;;;;7423450;19;20007;-78
2021/09/11 03:10:25;;;;;;;14.65;10.75;;;19.60;99.90;;;;;;7407401;19;20014;-79
2021/09/11 03:12:56;;;;;;;16.67;9.82;;;19.60;99.90;;;;;;7405721;19;20025;-78
2021/09/11 03:15:26;;;;;;;18.20;10.18;;;19.60;99.90;;;;;;7407640;19;20630;-78
2021/09/11 03:17:56;;;;;;;15.13;9.75;;;19.50;99.90;;;;;;7406653;19;20023;-77
2021/09/11 03:20:28;;;;;;;15.20;10.13;;;19.50;99.90;;;;;;7403154;19;20007;-78
2021/09/11 03:22:57;;;;;;;18.33;10.38;;;19.60;99.90;;;;;;7404650;19;20021;-80
2021/09/11 03:25:30;;;;;;;13.77;9.65;;;19.60;99.90;;;;;;7404807;19;20022;-79
2021/09/11 03:27:59;;;;;;;14.60;10.48;;;19.60;99.90;;;;;;7405536;19;20015;-79
2021/09/11 03:30:29;;;;;;;18.92;11.27;;;19.60;99.90;;;;;;7407249;19;20053;-78
2021/09/11 03:32:58;;;;;;;19.92;10.20;;;19.50;99.90;;;;;;7411639;19;20015;-80
2021/09/11 03:35:28;;;;;;;16.15;10.68;;;19.40;99.90;;;;;;7408614;19;20023;-80
2021/09/11 03:38:00;;;;;;;15.18;10.00;;;19.50;99.90;;;;;;7405621;19;20018;-80
2021/09/11 03:40:34;;;;;;;17.23;11.05;;;19.40;99.90;;;;;;7404132;19;20013;-79
2021/09/11 03:43:06;;;;;;;14.60;10.55;;;19.50;99.90;;;;;;7403769;19;20048;-80
2021/09/11 03:45:37;;;;;;;16.63;10.65;;;19.50;99.90;;;;;;7406353;19;20048;-81
2021/09/11 03:48:07;;;;;;;15.68;10.00;;;19.50;99.90;;;;;;7404616;19;20424;-81
2021/09/11 03:50:37;;;;;;;13.05;10.75;;;19.60;99.90;;;;;;7402403;19;20015;-80
2021/09/11 03:53:06;;;;;;;18.20;10.07;;;19.50;99.90;;;;;;7405020;19;20048;-80
2021/09/11 03:55:38;;;;;;;18.25;11.35;;;19.50;99.90;;;;;;7404317;19;20442;-81
2021/09/11 03:58:10;;;;;;;15.35;11.38;;;19.60;99.90;;;;;;7404203;19;20014;-80
2021/09/11 04:00:39;;;;;;;13.70;10.32;;;19.60;99.90;;;;;;7402261;19;20006;-80
2021/09/11 04:03:08;;;;;;;19.95;11.70;;;19.50;99.90;;;;;;7402116;19;20317;-79
2021/09/11 04:05:40;;;;;;;17.77;11.68;;;19.60;99.90;;;;;;7403343;19;20022;-80
2021/09/11 04:08:12;;;;;;;16.23;11.10;;;19.60;99.90;;;;;;7404245;19;20010;-81
2021/09/11 04:10:44;;;;;;;17.60;9.98;;;19.60;99.90;;;;;;7404111;19;20014;-81
2021/09/11 04:13:13;;;;;;;13.57;10.70;;;19.60;99.90;;;;;;7404770;19;20023;-79
2021/09/11 04:15:46;;;;;;;18.70;11.18;;;19.70;99.90;;;;;;7403783;19;20292;-80
2021/09/11 04:18:15;;;;;;;16.85;10.50;;;19.70;99.90;;;;;;7402359;19;20018;-80
2021/09/11 04:20:44;;;;;;;16.23;11.73;;;19.70;99.90;;;;;;7405057;19;20011;-80
2021/09/11 04:23:16;;;;;;;16.90;11.13;;;19.70;99.90;;;;;;7415645;19;20010;-79
2021/09/11 04:25:48;;;;;;;16.05;9.95;;;19.60;99.90;;;;;;7409263;19;20010;-82
2021/09/11 04:28:20;;;;;;;16.67;10.80;;;19.60;99.90;;;;;;7403512;19;20014;-80
2021/09/11 04:30:53;;;;;;;17.85;10.35;;;19.60;99.90;;;;;;7406321;19;20018;-80
2021/09/11 04:33:25;;;;;;;17.50;10.57;;;19.60;99.90;;;;;;7404454;19;20021;-81
2021/09/11 04:35:54;;;;;;;17.48;10.45;;;19.60;99.90;;;;;;7405033;19;20026;-80
2021/09/11 04:38:24;;;;;;;16.40;11.35;;;19.60;99.90;;;;;;7398520;19;20044;-80
2021/09/11 04:40:56;;;;;;;16.95;10.95;;;19.50;99.90;;;;;;7400766;19;20320;-80
2021/09/11 04:43:29;;;;;;;13.93;10.50;;;19.50;99.90;;;;;;7401945;19;20010;-79
2021/09/11 04:45:59;;;;;;;18.75;11.07;;;19.50;99.90;;;;;;7401835;19;20434;-78
2021/09/11 04:48:29;;;;;;;15.35;11.25;;;19.50;99.90;;;;;;7401834;19;20007;-78
2021/09/11 04:50:59;;;;;;;13.95;10.93;;;19.50;99.90;;;;;;7401846;19;20022;-80
2021/09/11 04:53:29;;;;;;;14.52;10.88;;;19.50;99.90;;;;;;7402984;19;20026;-80
2021/09/11 04:56:01;;;;;;;14.07;10.63;;;19.50;99.90;;;;;;7402752;19;20365;-79
2021/09/11 04:58:30;;;;;;;14.10;11.07;;;19.40;99.90;;;;;;7401792;19;20040;-80
2021/09/11 05:00:59;;;;;;;18.05;12.38;;;19.50;99.90;;;;;;7399792;19;20011;-79
2021/09/11 05:03:31;;;;;;;14.48;11.55;;;19.50;99.90;;;;;;7403027;19;20088;-79
2021/09/11 05:06:03;;;;;;;17.00;12.25;;;19.50;99.90;;;;;;7401504;19;20006;-79
2021/09/11 05:08:32;;;;;;;16.58;11.38;;;19.60;99.90;;;;;;7398632;19;20018;-79
2021/09/11 05:11:07;;;;;;;16.45;11.40;;;19.60;99.90;;;;;;7401469;19;20316;-79
2021/09/11 05:13:36;;;;;;;14.57;10.95;;;19.60;99.90;;;;;;7403123;19;20013;-78
2021/09/11 05:16:06;;;;;;;18.33;11.45;;;19.70;99.90;;;;;;7402751;19;20010;-79
2021/09/11 05:18:36;;;;;;;15.95;11.32;;;19.70;99.90;;;;;;7402075;19;20028;-79
2021/09/11 05:21:08;;;;;;;15.05;10.52;;;19.80;99.90;;;;;;7401817;19;20017;-79
2021/09/11 05:23:37;;;;;;;16.98;10.88;;;19.70;99.90;;;;;;7400452;19;20480;-79
2021/09/11 05:26:09;;;;;;;20.25;11.73;;;19.80;99.90;;;;;;7400782;19;20425;-80
2021/09/11 05:28:39;;;;;;;15.32;11.45;;;19.90;99.90;;;;;;7400578;19;20511;-80
2021/09/11 05:31:10;;;;;;;15.25;10.93;;;19.90;99.90;;;;;;7402070;19;20010;-79
2021/09/11 05:33:42;;;;;;;17.67;10.80;;;19.90;99.90;;;;;;7402770;19;20074;-79
2021/09/11 05:36:11;;;;;;;17.08;10.80;;;19.90;99.90;;;;;;7401047;19;20014;-79
2021/09/11 05:38:45;;;;;;;19.00;10.85;;;19.90;99.90;;;;;;7400731;19;20014;-79
2021/09/11 05:41:19;;;;;;;15.63;11.43;;;19.90;99.90;;;;;;7399607;19;20317;-80
2021/09/11 05:43:53;;;;;;;16.48;11.73;;;19.80;99.90;;;;;;7399123;19;20015;-79
2021/09/11 05:46:23;;;;;;;14.75;10.02;;;19.70;99.90;;;;;;7399021;19;20014;-78
2021/09/11 05:49:45;;;;;;;16.10;11.85;;;19.70;99.90;;;;;;7400234;19;20019;-78
2021/09/11 05:52:55;;;;;;;22.63;11.75;;;19.60;99.90;;;;;;7400656;19;20048;-81
2021/09/11 05:55:31;;;;;;;16.15;10.63;;;19.50;99.90;;;;;;7404462;19;20021;-78
2021/09/11 05:58:20;;;;;;;17.98;11.13;;;19.50;99.90;;;;;;7404813;19;20017;-80
2021/09/11 06:00:59;;;;;;;18.07;12.60;;;19.50;99.90;;;;;;7402963;19;20018;-79
2021/09/11 06:03:31;;;;;;;19.88;11.68;;;19.60;99.90;;;;;;7406724;19;20356;-79
2021/09/11 06:06:03;;;;;;;18.17;11.77;;;19.50;99.90;;;;;;7401798;19;20047;-79
2021/09/11 06:08:34;;;;;;;16.38;11.68;;;19.50;99.90;;;;;;7399076;19;20014;-77
2021/09/11 06:11:08;;;;;;;18.42;10.85;;;19.60;99.90;;;;;;7404179;19;20336;-80
2021/09/11 06:13:40;;;;;;;16.80;11.15;;;19.60;99.90;;;;;;7401879;19;20013;-81
2021/09/11 06:16:10;;;;;;;17.15;11.65;;;19.70;99.90;;;;;;7398774;19;20440;-83
2021/09/11 06:18:39;;;;;;;15.95;11.55;;;19.80;99.90;;;;;;7397792;19;20015;-81
2021/09/11 06:21:09;;;;;;;17.52;11.60;;;19.80;99.90;;;;;;7400507;19;20054;-78
2021/09/11 06:23:40;;;;;;;18.23;10.68;;;19.90;99.90;;;;;;7401152;19;20018;-80
2021/09/11 06:26:10;;;;;;;14.45;10.57;;;19.90;99.90;;;;;;7399122;19;20011;-77
2021/09/11 06:28:44;;;;;;;14.05;10.45;;;19.90;99.90;;;;;;7408583;19;20018;-80
2021/09/11 06:31:14;;;;;;;15.52;10.30;;;19.90;99.90;;;;;;7413369;19;20018;-79
2021/09/11 06:33:43;;;;;;;15.65;10.75;;;19.90;99.90;;;;;;7414300;19;20011;-78
2021/09/11 06:36:13;;;;;;;13.30;10.25;;;20.00;99.90;;;;;;7403508;19;20018;-80
2021/09/11 06:38:44;;;;;;;13.18;9.73;;;20.10;99.90;;;;;;7401077;19;20018;-80
2021/09/11 06:41:14;;;;;;;15.25;10.25;;;20.20;99.90;;;;;;7401298;19;20026;-79
2021/09/11 06:43:47;;;;;;;13.45;9.68;;;20.30;99.90;;;;;;7399431;19;20018;-79
2021/09/11 06:46:17;;;;;;;13.50;9.70;;;20.30;99.90;;;;;;7400666;19;20010;-80
2021/09/11 06:48:46;;;;;;;13.20;9.80;;;20.30;99.90;;;;;;7395328;19;20022;-77
2021/09/11 06:51:16;;;;;;;16.48;9.38;;;20.30;99.90;;;;;;7401183;19;20011;-77
2021/09/11 06:53:47;;;;;;;11.80;9.60;;;20.30;99.90;;;;;;7399364;19;20037;-79
2021/09/11 06:56:18;;;;;;;14.27;9.63;;;20.40;99.90;;;;;;7398067;19;20042;-80
2021/09/11 06:58:49;;;;;;;14.18;9.02;;;20.50;99.90;;;;;;7397025;19;20019;-81
2021/09/11 07:01:20;;;;;;;14.00;9.02;;;20.60;99.90;;;;;;7405131;19;20086;-80
2021/09/11 07:03:49;;;;;;;10.82;8.48;;;20.70;99.90;;;;;;7401997;19;20006;-80
2021/09/11 07:06:24;;;;;;;13.20;8.57;;;20.70;99.90;;;;;;7403732;19;20336;-80
2021/09/11 07:08:56;;;;;;;11.43;8.75;;;20.70;99.90;;;;;;7403626;19;20451;-79
2021/09/11 07:11:33;;;;;;;16.67;9.15;;;20.50;99.90;;;;;;7411728;19;20026;-78
2021/09/11 07:14:05;;;;;;;12.85;8.75;;;20.40;99.90;;;;;;7421157;19;20003;-80
2021/09/11 07:16:35;;;;;;;13.52;9.18;;;20.30;99.90;;;;;;7413403;19;20010;-81
2021/09/11 07:19:04;;;;;;;13.98;8.75;;;20.30;99.90;;;;;;7426017;19;20040;-79
2021/09/11 07:21:34;;;;;;;12.18;8.75;;;20.30;99.90;;;;;;7423684;19;20014;-81
2021/09/11 07:24:03;;;;;;;13.77;8.90;;;20.20;99.90;;;;;;7409247;19;20014;-80
2021/09/11 07:26:33;;;;;;;13.75;9.32;;;20.20;99.90;;;;;;7408334;19;20014;-80
2021/09/11 07:29:08;;;;;;;15.02;10.10;;;20.10;99.90;;;;;;7401978;19;20179;-79
2021/09/11 07:31:37;;;;;;;15.32;9.85;;;20.00;99.90;;;;;;7404769;19;20019;-78
2021/09/11 07:34:07;;;;;;;12.50;9.50;;;19.90;99.90;;;;;;7408827;19;20317;-79
2021/09/11 07:36:38;;;;;;;14.35;10.18;;;19.80;99.90;;;;;;7405382;19;20012;-79
2021/09/11 07:39:08;;;;;;;15.30;10.13;;;19.90;99.90;;;;;;7405722;19;20006;-80
2021/09/11 07:41:37;;;;;;;18.45;10.15;;;19.90;99.90;;;;;;7407016;19;20022;-80
2021/09/11 07:44:10;;;;;;;15.65;10.18;;;19.90;99.90;;;;;;7412262;19;20124;-81
2021/09/11 07:46:40;;;;;;;14.20;10.25;;;19.90;99.90;;;;;;7414996;19;20018;-78
2021/09/11 07:49:09;;;;;;;13.90;10.27;;;19.90;99.90;;;;;;7409421;19;20224;-80
2021/09/11 07:51:44;;;;;;;14.13;10.20;;;20.00;99.90;;;;;;7410282;19;20014;-78
2021/09/11 07:54:13;;;;;;;12.70;9.90;;;20.10;99.90;;;;;;7415277;19;20003;-79
2021/09/11 07:56:43;;;;;;;13.88;10.00;;;19.90;99.90;;;;;;7414208;19;20503;-78
2021/09/11 07:59:20;;;;;;;15.32;9.80;;;19.90;99.90;;;;;;7415166;19;20014;-81
2021/09/11 08:01:49;;;;;;;13.75;9.07;;;20.00;99.90;;;;;;7416757;19;20413;-79
2021/09/11 08:04:19;;;;;;;14.50;9.63;;;20.10;99.90;;;;;;7407318;19;20007;-80
2021/09/11 08:06:51;;;;;;;13.48;10.23;;;20.30;99.90;;;;;;7411588;19;20014;-81
2021/09/11 08:09:20;;;;;;;12.98;9.20;;;20.30;99.90;;;;;;7411194;19;20018;-80
2021/09/11 08:11:52;;;;;;;12.13;8.82;;;20.30;99.90;;;;;;7414670;19;20022;-78
2021/09/11 08:14:24;;;;;;;15.20;9.15;;;20.20;99.90;;;;;;7412460;19;20010;-79
2021/09/11 08:16:54;;;;;;;12.15;9.45;;;20.20;99.90;;;;;;7407019;19;20015;-78
2021/09/11 08:19:23;;;;;;;13.10;9.15;;;20.30;99.90;;;;;;7409881;19;20014;-80
2021/09/11 08:21:54;;;;;;;12.77;8.75;;;20.40;99.90;;;;;;7407198;19;20043;-81
2021/09/11 08:24:29;;;;;;;12.23;8.80;;;20.60;99.90;;;;;;7405860;19;20018;-79
2021/09/11 08:27:01;;;;;;;11.70;8.55;;;20.70;99.90;;;;;;7407927;19;20019;-80
2021/09/11 08:29:35;;;;;;;12.65;9.00;;;20.80;99.90;;;;;;7404952;19;20006;-79
2021/09/11 08:32:05;;;;;;;11.07;8.88;;;21.10;99.90;;;;;;7400440;19;20019;-80
2021/09/11 08:34:37;;;;;;;9.27;7.45;;;21.40;99.90;;;;;;7403133;19;20021;-79
2021/09/11 08:37:06;;;;;;;11.63;8.52;;;21.50;99.90;;;;;;7403940;19;20471;-79
2021/09/11 08:39:39;;;;;;;10.15;7.68;;;21.70;99.90;;;;;;7403714;19;20086;-79
2021/09/11 08:42:08;;;;;;;10.20;7.32;;;21.60;99.90;;;;;;7405171;19;20018;-78
2021/09/11 08:44:46;;;;;;;9.50;6.93;;;21.50;99.90;;;;;;7401646;19;20015;-80
2021/09/11 08:47:23;;;;;;;10.60;7.63;;;21.60;99.90;;;;;;7417492;19;20043;-77
2021/09/11 08:49:53;;;;;;;11.48;7.75;;;21.50;99.90;;;;;;7416342;19;20266;-78
2021/09/11 08:52:29;;;;;;;11.20;7.55;;;21.40;99.90;;;;;;7415038;19;20038;-80
2021/09/11 08:55:01;;;;;;;9.20;6.43;;;21.40;99.90;;;;;;7423427;19;20313;-79
2021/09/11 08:57:33;;;;;;;9.25;6.18;;;21.50;99.90;;;;;;7413406;19;20033;-78
2021/09/11 09:00:10;;;;;;;10.32;6.32;;;21.70;99.90;;;;;;7406738;19;20017;-80
2021/09/11 09:02:40;;;;;;;8.50;6.07;;;21.90;99.90;;;;;;7404535;19;20011;-79
2021/09/11 09:05:12;;;;;;;9.75;5.25;;;22.30;99.90;;;;;;7404688;19;20040;-80
2021/09/11 09:07:48;;;;;;;7.72;4.93;;;22.40;99.90;;;;;;7407639;19;20047;-80
2021/09/11 09:10:19;;;;;;;7.18;5.40;;;22.70;99.90;;;;;;7404054;19;20014;-80
2021/09/11 09:13:00;;;;;;;7.40;5.07;;;22.80;99.90;;;;;;7403719;19;20010;-79
2021/09/11 09:15:36;;;;;;;8.52;5.78;;;22.90;99.90;;;;;;7402272;19;20010;-78
2021/09/11 09:18:06;;;;;;;9.68;6.43;;;22.90;99.90;;;;;;7403866;19;20115;-76
2021/09/11 09:20:37;;;;;;;8.25;5.90;;;22.40;99.90;;;;;;7410246;19;20339;-77
2021/09/11 09:23:17;;;;;;;9.20;6.03;;;22.10;99.90;;;;;;7402769;19;20035;-78
2021/09/11 09:25:52;;;;;;;12.73;5.95;;;22.10;99.90;;;;;;7406106;19;20063;-78
2021/09/11 09:28:30;;;;;;;8.85;6.35;;;22.20;99.90;;;;;;7397307;19;20025;-79
2021/09/11 09:31:03;;;;;;;11.18;6.90;;;22.50;99.90;;;;;;7402761;19;20007;-80
2021/09/11 09:33:39;;;;;;;7.28;5.38;;;22.80;99.90;;;;;;7399374;19;20294;-79
2021/09/11 09:36:09;;;;;;;8.93;6.15;;;22.90;99.90;;;;;;7399996;19;20022;-77
2021/09/11 09:38:39;;;;;;;9.23;5.55;;;22.60;99.90;;;;;;7402209;19;20006;-78
2021/09/11 09:41:13;;;;;;;7.00;4.95;;;22.50;99.90;;;;;;7400201;19;20010;-77
2021/09/11 09:43:45;;;;;;;8.45;4.03;;;23.10;99.90;;;;;;7398269;19;20439;-79
2021/09/11 09:46:19;;;;;;;5.40;3.80;;;24.00;99.60;;;;;;7399362;19;20003;-78
2021/09/11 09:48:50;;;;;;;4.75;3.72;;;24.40;97.70;;;;;;7396212;19;20021;-78
2021/09/11 09:51:22;;;;;;;8.02;3.92;;;24.60;97.20;;;;;;7398285;19;20003;-79
2021/09/11 09:53:52;;;;;;;5.53;3.70;;;24.70;96.80;;;;;;7401300;19;20529;-78
2021/09/11 09:56:26;;;;;;;5.00;3.03;;;24.40;96.50;;;;;;7397890;19;20015;-80
2021/09/11 09:58:57;;;;;;;7.72;3.28;;;24.40;96.10;;;;;;7396535;19;20455;-80
2021/09/11 10:01:29;;;;;;;8.10;3.88;;;24.80;95.10;;;;;;7399463;19;20021;-80
2021/09/11 10:03:59;;;;;;;4.20;3.10;;;24.90;94.90;;;;;;7395274;19;20316;-80
2021/09/11 10:06:32;;;;;;;6.53;3.50;;;24.40;95.40;;;;;;7398344;19;20029;-80
2021/09/11 10:09:07;;;;;;;5.57;3.30;;;24.60;95.20;;;;;;7395858;19;20317;-79
2021/09/11 10:11:37;;;;;;;6.57;3.30;;;25.00;94.50;;;;;;7397908;19;20018;-79
2021/09/11 10:14:12;;;;;;;4.65;3.08;;;25.60;93.50;;;;;;7399297;19;20014;-80
2021/09/11 10:16:47;;;;;;;8.00;3.30;;;25.60;93.20;;;;;;7400566;19;20278;-79
2021/09/11 10:19:23;;;;;;;4.88;3.03;;;25.60;93.00;;;;;;7398300;19;20094;-82
2021/09/11 10:22:10;;;;;;;4.72;3.22;;;24.60;93.20;;;;;;7400961;19;20025;-77
2021/09/11 10:24:44;;;;;;;9.05;3.60;;;24.10;94.80;;;;;;7398569;19;20030;-80
2021/09/11 10:27:24;;;;;;;6.13;3.10;;;24.60;94.40;;;;;;7398229;19;20022;-79
2021/09/11 10:29:58;;;;;;;5.50;3.17;;;25.00;93.40;;;;;;7397115;19;20010;-81
2021/09/11 10:32:39;;;;;;;5.13;2.97;;;24.40;94.30;;;;;;7396679;19;20029;-79
2021/09/11 10:35:13;;;;;;;8.68;2.58;;;25.00;93.40;;;;;;7398535;19;20043;-80
2021/09/11 10:37:48;;;;;;;4.30;2.42;;;26.50;90.90;;;;;;7404867;19;20077;-79
2021/09/11 10:40:26;;;;;;;5.60;2.10;;;27.40;87.70;;;;;;7407928;19;20019;-81
2021/09/11 10:43:19;;;;;;;5.70;2.20;;;27.60;86.40;;;;;;7404178;19;20412;-80
2021/09/11 10:46:00;;;;;;;9.20;2.40;;;26.90;86.60;;;;;;7406833;19;20014;-80
2021/09/11 10:48:50;;;;;;;4.00;1.80;;;27.40;84.60;;;;;;7405218;19;20035;-81
2021/09/11 10:52:01;;;;;;;2.92;1.65;;;27.30;84.40;;;;;;7404617;19;20056;-79
2021/09/11 10:54:33;;;;;;;6.10;1.80;;;25.90;86.80;;;;;;7405073;19;20025;-79
2021/09/11 10:57:13;;;;;;;3.67;1.45;;;24.90;89.50;;;;;;7403839;19;20442;-79
2021/09/11 10:59:46;;;;;;;2.80;1.50;;;25.10;89.00;;;;;;7404615;19;20003;-81
2021/09/11 11:02:37;;;;;;;3.88;1.55;;;25.70;87.70;;;;;;7406807;19;20011;-82
2021/09/11 11:05:12;;;;;;;6.43;1.90;;;26.00;85.70;;;;;;7405592;19;20015;-81
2021/09/11 11:07:44;;;;;;;3.90;1.90;;;25.80;87.80;;;;;;7402991;19;20022;-80
2021/09/11 11:10:17;;;;;;;3.15;1.60;;;27.00;85.10;;;;;;7411100;19;20015;-83
2021/09/11 11:12:49;;;;;;;14.65;2.70;;;27.30;83.40;;;;;;7415789;19;20367;-81
2021/09/11 11:15:25;;;;;;;4.65;1.60;;;27.40;83.70;;;;;;7407925;19;20010;-78
2021/09/11 11:17:57;;;;;;;;;;;27.30;82.80;;;;;;7406218;19;20373;-79
2021/09/11 11:20:31;;;;;;;6.65;1.92;;;27.00;83.40;;;;;;7402753;19;19919;-80
2021/09/11 11:23:04;;;;;;;7.97;1.67;;;27.70;82.80;;;;;;7404388;19;20010;-78
2021/09/11 11:25:36;;;;;;;5.05;1.55;;;30.00;78.10;;;;;;7403657;19;20136;-78
2021/09/11 11:28:07;;;;;;;2.63;1.45;;;32.20;69.90;;;;;;7401732;19;20018;-79
2021/09/11 11:30:40;;;;;;;2.67;1.50;;;33.60;65.30;;;;;;7403797;19;20019;-77
2021/09/11 11:33:10;;;;;;;3.40;1.45;;;33.90;61.50;;;;;;7403057;19;20022;-78
2021/09/11 11:35:44;;;;;;;3.53;1.48;;;33.50;62.30;;;;;;7404255;19;20074;-80
2021/09/11 11:38:16;;;;;;;4.75;1.30;;;34.40;60.80;;;;;;7400525;19;20048;-79
2021/09/11 11:40:47;;;;;;;2.58;1.27;;;35.20;56.80;;;;;;7403481;19;20015;-77
2021/09/11 11:43:23;;;;;;;2.97;1.30;;;35.10;55.60;;;;;;7401742;19;20321;-79
2021/09/11 11:45:53;;;;;;;4.25;1.42;;;35.10;54.90;;;;;;7402944;19;20085;-78
2021/09/11 11:48:25;;;;;;;2.45;1.10;;;35.50;54.40;;;;;;7401811;19;20048;-78
2021/09/11 11:50:57;;;;;;;2.83;1.30;;;34.80;54.70;;;;;;7407803;19;20488;-80
2021/09/11 11:53:29;;;;;;;2.53;1.30;;;33.70;55.90;;;;;;7403746;19;20017;-81
2021/09/11 11:55:58;;;;;;;3.90;1.50;;;31.90;57.60;;;;;;7403149;19;20019;-79
2021/09/11 11:58:31;;;;;;;2.55;1.25;;;30.80;59.50;;;;;;7403833;19;20036;-80
2021/09/11 12:01:02;;;;;;;3.78;1.50;;;30.40;60.40;;;;;;7406599;19;20013;-80
2021/09/11 12:03:37;;;;;;;3.88;1.73;;;30.00;62.00;;;;;;7403266;19;20432;-80
2021/09/11 12:06:25;;;;;;;2.80;1.42;;;31.20;60.50;;;;;;7402829;19;20030;-77
2021/09/11 12:09:04;;;;;;;6.03;1.50;;;33.20;57.10;;;;;;7401949;19;20021;-79
2021/09/11 12:11:33;;;;;;;5.75;1.40;;;34.60;52.60;;;;;;7403213;19;20017;-78
2021/09/11 12:14:07;;;;;;;2.15;1.20;;;33.40;52.90;;;;;;7400623;19;20014;-81
2021/09/11 12:16:37;;;;;;;3.17;1.30;;;33.20;53.80;;;;;;7402072;19;20030;-80
2021/09/11 12:19:15;;;;;;;1.98;1.20;;;33.40;53.70;;;;;;7401740;19;20040;-81
2021/09/11 12:21:47;;;;;;;;;;;33.60;53.70;;;;;;7404565;19;20018;-78
2021/09/11 12:24:21;;;;;;;5.70;1.70;;;33.30;53.00;;;;;;7403697;19;19982;-79
2021/09/11 12:26:53;;;;;;;3.70;1.50;;;31.90;54.50;;;;;;7404702;19;20032;-79
2021/09/11 12:29:28;;;;;;;8.52;2.05;;;30.90;56.60;;;;;;7400966;19;20052;-79
2021/09/11 12:32:05;;;;;;;3.55;1.55;;;30.60;57.60;;;;;;7400254;19;20018;-79
2021/09/11 12:34:47;;;;;;;3.30;1.60;;;31.10;57.60;;;;;;7402357;19;20035;-80
2021/09/11 12:37:21;;;;;;;2.58;1.50;;;32.00;55.60;;;;;;7403951;19;20019;-78
2021/09/11 12:39:58;;;;;;;2.42;1.40;;;33.70;52.50;;;;;;7404356;19;20400;-82
2021/09/11 12:42:27;;;;;;;3.70;1.60;;;33.30;50.90;;;;;;7402999;19;20010;-80
2021/09/11 12:44:57;;;;;;;2.60;1.58;;;32.90;51.90;;;;;;7403681;19;20025;-79
2021/09/11 12:47:28;;;;;;;2.70;1.60;;;34.20;50.20;;;;;;7401211;19;20019;-80
2021/09/11 12:49:58;;;;;;;4.00;1.85;;;33.30;51.70;;;;;;7402955;19;20011;-79
2021/09/11 12:52:30;;;;;;;3.20;1.40;;;32.50;52.00;;;;;;7402786;19;20014;-80
2021/09/11 12:55:01;;;;;;;3.58;1.63;;;31.40;53.30;;;;;;7400377;19;20448;-80
2021/09/11 12:57:32;;;;;;;3.50;1.50;;;30.80;55.20;;;;;;7401062;19;20022;-79
2021/09/11 13:00:04;;;;;;;3.10;1.60;;;30.90;56.60;;;;;;7402229;19;20321;-80
2021/09/11 13:02:33;;;;;;;3.58;1.50;;;30.20;57.20;;;;;;7400685;19;20021;-79
2021/09/11 13:05:08;;;;;;;2.80;1.33;;;29.90;57.00;;;;;;7401297;19;20029;-80